SHT2X EGLL-EGCC
Flight info
| Callsign | SHT2X |
|---|---|
| Flight time | 0h 32m |
| Altitude | 18000 |
| Route | ULTIB1J ULTIB T420 ELVOS ELVOS1M |
| Aircraft | A320/M-SDE3FGHIRWY/LB1 |
Departure
| Time | 2026-05-05 17:40 |
|---|---|
| Airport | London Heathrow Airport (EGLL) |
Arrival
| Time | 2026-05-05 18:12 |
|---|---|
| Airport | Manchester Airport (EGCC) |
| Time | Latitude | Longitude | Altitude | Speed | Heading |
|---|---|---|---|---|---|
| 2026-05-05 17:22 | 51.46926 | -0.48575 | 90 ft | 0 kts | 359° |
| 2026-05-05 17:33 | 51.46903 | -0.48578 | 90 ft | 4 kts | 23° |
| 2026-05-05 17:34 | 51.46883 | -0.48602 | 90 ft | 4 kts | 62° |
| 2026-05-05 17:34 | 51.46876 | -0.48632 | 90 ft | 0 kts | 88° |
| 2026-05-05 17:36 | 51.46877 | -0.48611 | 90 ft | 5 kts | 88° |
| 2026-05-05 17:36 | 51.46878 | -0.48551 | 91 ft | 7 kts | 89° |
| 2026-05-05 17:37 | 51.46864 | -0.48475 | 92 ft | 7 kts | 142° |
| 2026-05-05 17:37 | 51.46813 | -0.48469 | 92 ft | 8 kts | 180° |
| 2026-05-05 17:37 | 51.46752 | -0.48469 | 93 ft | 9 kts | 180° |
| 2026-05-05 17:37 | 51.46684 | -0.48468 | 94 ft | 10 kts | 179° |
| 2026-05-05 17:38 | 51.46615 | -0.48468 | 96 ft | 10 kts | 180° |
| 2026-05-05 17:38 | 51.46542 | -0.48469 | 96 ft | 12 kts | 180° |
| 2026-05-05 17:38 | 51.46478 | -0.48452 | 94 ft | 9 kts | 132° |
| 2026-05-05 17:38 | 51.46478 | -0.48354 | 94 ft | 8 kts | 90° |
| 2026-05-05 17:39 | 51.46478 | -0.48321 | 94 ft | 11 kts | 90° |
| 2026-05-05 17:39 | 51.46480 | -0.47853 | 90 ft | 77 kts | 90° |
| 2026-05-05 17:39 | 51.46485 | -0.46657 | 97 ft | 133 kts | 89° |
| 2026-05-05 17:39 | 51.46490 | -0.44935 | 187 ft | 166 kts | 87° |
| 2026-05-05 17:40 | 51.46500 | -0.43094 | 783 ft | 166 kts | 86° |
| 2026-05-05 17:40 | 51.46599 | -0.41243 | 1425 ft | 168 kts | 70° |
| 2026-05-05 17:40 | 51.47298 | -0.39638 | 1699 ft | 188 kts | 43° |
| 2026-05-05 17:40 | 51.48271 | -0.38067 | 1981 ft | 211 kts | 47° |
| 2026-05-05 17:41 | 51.49287 | -0.36186 | 2364 ft | 236 kts | 49° |
| 2026-05-05 17:41 | 51.50360 | -0.34113 | 2992 ft | 249 kts | 50° |
| 2026-05-05 17:41 | 51.51475 | -0.31941 | 3894 ft | 253 kts | 49° |
| 2026-05-05 17:41 | 51.52429 | -0.29534 | 4785 ft | 260 kts | 67° |
| 2026-05-05 17:42 | 51.53024 | -0.26777 | 5608 ft | 266 kts | 69° |
| 2026-05-05 17:42 | 51.53894 | -0.24163 | 5913 ft | 266 kts | 46° |
| 2026-05-05 17:42 | 51.55390 | -0.22480 | 6012 ft | 263 kts | 19° |
| 2026-05-05 17:42 | 51.57187 | -0.22160 | 6006 ft | 262 kts | 351° |
| 2026-05-05 17:43 | 51.58898 | -0.23169 | 6085 ft | 264 kts | 333° |
| 2026-05-05 17:43 | 51.60514 | -0.24586 | 6084 ft | 265 kts | 331° |
| 2026-05-05 17:43 | 51.62118 | -0.26049 | 6092 ft | 265 kts | 331° |
| 2026-05-05 17:43 | 51.63723 | -0.27520 | 6087 ft | 265 kts | 331° |
| 2026-05-05 17:44 | 51.65302 | -0.28973 | 6094 ft | 265 kts | 331° |
| 2026-05-05 17:44 | 51.66903 | -0.30447 | 6115 ft | 266 kts | 331° |
| 2026-05-05 17:44 | 51.68524 | -0.31940 | 6901 ft | 268 kts | 331° |
| 2026-05-05 17:44 | 51.70151 | -0.33426 | 7768 ft | 270 kts | 331° |
| 2026-05-05 17:45 | 51.71805 | -0.34932 | 8629 ft | 273 kts | 331° |
| 2026-05-05 17:45 | 51.73472 | -0.36455 | 9466 ft | 277 kts | 330° |
| 2026-05-05 17:45 | 51.75156 | -0.38023 | 10236 ft | 282 kts | 330° |
| 2026-05-05 17:45 | 51.76896 | -0.39659 | 10471 ft | 305 kts | 329° |
| 2026-05-05 17:46 | 51.78821 | -0.41477 | 10657 ft | 325 kts | 329° |
| 2026-05-05 17:46 | 51.80802 | -0.43352 | 11212 ft | 333 kts | 329° |
| 2026-05-05 17:46 | 51.82814 | -0.45254 | 11914 ft | 336 kts | 329° |
| 2026-05-05 17:46 | 51.84820 | -0.47149 | 12586 ft | 340 kts | 328° |
| 2026-05-05 17:47 | 51.86874 | -0.49088 | 13287 ft | 344 kts | 328° |
| 2026-05-05 17:47 | 51.88954 | -0.51055 | 13910 ft | 349 kts | 328° |
| 2026-05-05 17:47 | 51.91068 | -0.53052 | 14487 ft | 353 kts | 329° |
| 2026-05-05 17:47 | 51.93205 | -0.55075 | 15063 ft | 357 kts | 328° |
| 2026-05-05 17:48 | 51.95363 | -0.57122 | 15649 ft | 361 kts | 329° |
| 2026-05-05 17:48 | 51.97541 | -0.59193 | 16222 ft | 365 kts | 328° |
| 2026-05-05 17:48 | 51.99737 | -0.61280 | 16796 ft | 368 kts | 329° |
| 2026-05-05 17:48 | 52.01936 | -0.63367 | 17356 ft | 372 kts | 329° |
| 2026-05-05 17:49 | 52.04188 | -0.65516 | 17846 ft | 377 kts | 329° |
| 2026-05-05 17:49 | 52.06450 | -0.67684 | 17963 ft | 382 kts | 328° |
| 2026-05-05 17:49 | 52.08771 | -0.69909 | 17976 ft | 389 kts | 328° |
| 2026-05-05 17:49 | 52.11112 | -0.72151 | 17975 ft | 391 kts | 328° |
| 2026-05-05 17:50 | 52.13458 | -0.74395 | 17961 ft | 391 kts | 328° |
| 2026-05-05 17:50 | 52.15811 | -0.76645 | 17961 ft | 391 kts | 328° |
| 2026-05-05 17:50 | 52.18132 | -0.78870 | 17969 ft | 392 kts | 328° |
| 2026-05-05 17:50 | 52.20476 | -0.81123 | 17972 ft | 391 kts | 328° |
| 2026-05-05 17:51 | 52.22823 | -0.83388 | 17974 ft | 391 kts | 328° |
| 2026-05-05 17:51 | 52.25165 | -0.85652 | 17972 ft | 391 kts | 328° |
| 2026-05-05 17:51 | 52.27499 | -0.87933 | 17973 ft | 391 kts | 328° |
| 2026-05-05 17:51 | 52.29829 | -0.90236 | 17981 ft | 391 kts | 327° |
| 2026-05-05 17:52 | 52.32150 | -0.92551 | 17995 ft | 391 kts | 326° |
| 2026-05-05 17:52 | 52.34467 | -0.94874 | 18004 ft | 390 kts | 326° |
| 2026-05-05 17:52 | 52.36779 | -0.97195 | 18006 ft | 390 kts | 326° |
| 2026-05-05 17:52 | 52.39094 | -0.99522 | 18008 ft | 389 kts | 327° |
| 2026-05-05 17:53 | 52.41407 | -1.01842 | 18005 ft | 389 kts | 327° |
| 2026-05-05 17:53 | 52.43720 | -1.04158 | 18004 ft | 389 kts | 327° |
| 2026-05-05 17:53 | 52.46030 | -1.06471 | 18005 ft | 389 kts | 327° |
| 2026-05-05 17:53 | 52.48347 | -1.08792 | 18008 ft | 389 kts | 327° |
| 2026-05-05 17:54 | 52.50626 | -1.11083 | 18006 ft | 389 kts | 327° |
| 2026-05-05 17:54 | 52.52934 | -1.13408 | 18019 ft | 389 kts | 327° |
| 2026-05-05 17:54 | 52.55243 | -1.15735 | 18019 ft | 389 kts | 327° |
| 2026-05-05 17:54 | 52.57549 | -1.18057 | 18021 ft | 388 kts | 327° |
| 2026-05-05 17:55 | 52.59853 | -1.20381 | 18018 ft | 388 kts | 327° |
| 2026-05-05 17:55 | 52.62157 | -1.22713 | 18019 ft | 388 kts | 327° |
| 2026-05-05 17:55 | 52.64452 | -1.25038 | 18019 ft | 388 kts | 327° |
| 2026-05-05 17:55 | 52.66754 | -1.27373 | 18018 ft | 387 kts | 327° |
| 2026-05-05 17:56 | 52.69052 | -1.29703 | 18019 ft | 387 kts | 327° |
| 2026-05-05 17:56 | 52.71350 | -1.32033 | 18017 ft | 387 kts | 327° |
| 2026-05-05 17:56 | 52.73615 | -1.34333 | 18015 ft | 387 kts | 327° |
| 2026-05-05 17:56 | 52.75910 | -1.36669 | 18022 ft | 387 kts | 326° |
| 2026-05-05 17:57 | 52.78205 | -1.39008 | 18024 ft | 387 kts | 326° |
| 2026-05-05 17:57 | 52.80496 | -1.41344 | 18024 ft | 387 kts | 326° |
| 2026-05-05 17:57 | 52.82760 | -1.43657 | 17791 ft | 377 kts | 326° |
| 2026-05-05 17:57 | 52.84970 | -1.45919 | 17292 ft | 372 kts | 326° |
| 2026-05-05 17:58 | 52.87168 | -1.48178 | 16778 ft | 368 kts | 326° |
| 2026-05-05 17:58 | 52.89337 | -1.50412 | 16254 ft | 364 kts | 326° |
| 2026-05-05 17:58 | 52.91475 | -1.52616 | 15769 ft | 360 kts | 326° |
| 2026-05-05 17:58 | 52.93591 | -1.54791 | 15289 ft | 356 kts | 327° |
| 2026-05-05 17:59 | 52.95685 | -1.56941 | 14811 ft | 352 kts | 327° |
| 2026-05-05 17:59 | 52.97733 | -1.59051 | 14408 ft | 347 kts | 327° |
| 2026-05-05 17:59 | 52.99726 | -1.61110 | 14220 ft | 327 kts | 327° |
| 2026-05-05 17:59 | 53.01637 | -1.63089 | 13456 ft | 322 kts | 326° |
| 2026-05-05 18:00 | 53.03501 | -1.65020 | 12963 ft | 309 kts | 327° |
| 2026-05-05 18:00 | 53.05223 | -1.67005 | 12546 ft | 294 kts | 319° |
| 2026-05-05 18:00 | 53.06640 | -1.69381 | 12247 ft | 284 kts | 309° |
| 2026-05-05 18:00 | 53.07927 | -1.71894 | 12175 ft | 286 kts | 310° |
| 2026-05-05 18:01 | 53.09226 | -1.74407 | 12062 ft | 286 kts | 310° |
| 2026-05-05 18:01 | 53.10519 | -1.76905 | 11941 ft | 284 kts | 310° |
| 2026-05-05 18:01 | 53.11794 | -1.79371 | 11577 ft | 288 kts | 310° |
| 2026-05-05 18:01 | 53.13114 | -1.81935 | 11045 ft | 293 kts | 310° |
| 2026-05-05 18:02 | 53.14450 | -1.84533 | 10548 ft | 296 kts | 310° |
| 2026-05-05 18:02 | 53.15800 | -1.87158 | 10046 ft | 299 kts | 310° |
| 2026-05-05 18:02 | 53.17157 | -1.89805 | 9505 ft | 301 kts | 310° |
| 2026-05-05 18:02 | 53.18524 | -1.92473 | 8984 ft | 303 kts | 310° |
| 2026-05-05 18:03 | 53.19877 | -1.95109 | 8490 ft | 303 kts | 310° |
| 2026-05-05 18:03 | 53.21244 | -1.97775 | 7998 ft | 300 kts | 310° |
| 2026-05-05 18:03 | 53.22546 | -2.00341 | 7846 ft | 277 kts | 307° |
| 2026-05-05 18:03 | 53.23435 | -2.03045 | 7718 ft | 259 kts | 289° |
| 2026-05-05 18:04 | 53.23744 | -2.05952 | 7589 ft | 250 kts | 271° |
| 2026-05-05 18:04 | 53.23653 | -2.08779 | 7340 ft | 240 kts | 268° |
| 2026-05-05 18:04 | 53.23549 | -2.11559 | 7084 ft | 238 kts | 268° |
| 2026-05-05 18:04 | 53.23449 | -2.14280 | 6818 ft | 237 kts | 268° |
| 2026-05-05 18:05 | 53.23349 | -2.17022 | 6578 ft | 234 kts | 267° |
| 2026-05-05 18:05 | 53.23253 | -2.19662 | 6412 ft | 221 kts | 267° |
| 2026-05-05 18:05 | 53.23162 | -2.22192 | 5999 ft | 219 kts | 268° |
| 2026-05-05 18:05 | 53.23072 | -2.24670 | 5771 ft | 207 kts | 268° |
| 2026-05-05 18:06 | 53.22984 | -2.27023 | 5575 ft | 200 kts | 268° |
| 2026-05-05 18:06 | 53.22956 | -2.27778 | 5477 ft | 200 kts | 268° |
| 2026-05-05 18:06 | 53.22809 | -2.31610 | 4839 ft | 198 kts | 268° |
| 2026-05-05 18:06 | 53.22722 | -2.33893 | 4461 ft | 196 kts | 268° |
| 2026-05-05 18:07 | 53.22636 | -2.36158 | 4200 ft | 196 kts | 268° |
| 2026-05-05 18:07 | 53.22579 | -2.37663 | 4027 ft | 196 kts | 269° |
| 2026-05-05 18:07 | 53.22492 | -2.39931 | 3769 ft | 194 kts | 268° |
| 2026-05-05 18:07 | 53.22418 | -2.42171 | 3541 ft | 192 kts | 275° |
| 2026-05-05 18:08 | 53.23054 | -2.44758 | 3237 ft | 182 kts | 317° |
| 2026-05-05 18:08 | 53.23728 | -2.45638 | 3054 ft | 181 kts | 336° |
| 2026-05-05 18:08 | 53.24915 | -2.46053 | 2942 ft | 178 kts | 5° |
| 2026-05-05 18:08 | 53.26083 | -2.45444 | 2551 ft | 177 kts | 35° |
| 2026-05-05 18:09 | 53.26922 | -2.43996 | 2253 ft | 171 kts | 50° |
| 2026-05-05 18:09 | 53.27638 | -2.42521 | 2006 ft | 156 kts | 50° |
| 2026-05-05 18:09 | 53.28284 | -2.41190 | 1822 ft | 140 kts | 50° |
| 2026-05-05 18:09 | 53.28887 | -2.39950 | 1618 ft | 134 kts | 50° |
| 2026-05-05 18:10 | 53.29472 | -2.38746 | 1430 ft | 133 kts | 50° |
| 2026-05-05 18:10 | 53.30053 | -2.37551 | 1241 ft | 133 kts | 50° |
| 2026-05-05 18:10 | 53.30630 | -2.36352 | 1036 ft | 132 kts | 50° |
| 2026-05-05 18:10 | 53.31208 | -2.35156 | 843 ft | 133 kts | 51° |
| 2026-05-05 18:11 | 53.31801 | -2.33939 | 671 ft | 135 kts | 51° |
| 2026-05-05 18:11 | 53.32396 | -2.32714 | 489 ft | 135 kts | 52° |
| 2026-05-05 18:11 | 53.32983 | -2.31505 | 322 ft | 133 kts | 52° |
| 2026-05-05 18:11 | 53.33553 | -2.30330 | 235 ft | 119 kts | 51° |
| 2026-05-05 18:12 | 53.33966 | -2.29476 | 242 ft | 71 kts | 51° |
| 2026-05-05 18:12 | 53.34201 | -2.28990 | 250 ft | 47 kts | 51° |
| 2026-05-05 18:12 | 53.34338 | -2.28714 | 251 ft | 23 kts | 40° |
| 2026-05-05 18:12 | 53.34468 | -2.28560 | 255 ft | 22 kts | 23° |
| 2026-05-05 18:13 | 53.34559 | -2.28501 | 258 ft | 8 kts | 21° |
| 2026-05-05 18:13 | 53.34615 | -2.28465 | 260 ft | 9 kts | 21° |
| 2026-05-05 18:13 | 53.34681 | -2.28421 | 260 ft | 11 kts | 21° |
| 2026-05-05 18:13 | 53.34744 | -2.28334 | 260 ft | 14 kts | 51° |
| 2026-05-05 18:14 | 53.34810 | -2.28195 | 260 ft | 17 kts | 50° |
| 2026-05-05 18:14 | 53.34891 | -2.28032 | 260 ft | 20 kts | 50° |
| 2026-05-05 18:14 | 53.34968 | -2.27873 | 259 ft | 18 kts | 50° |
| 2026-05-05 18:14 | 53.35039 | -2.27725 | 259 ft | 15 kts | 51° |
| 2026-05-05 18:15 | 53.35100 | -2.27599 | 259 ft | 15 kts | 51° |
| 2026-05-05 18:15 | 53.35157 | -2.27481 | 259 ft | 13 kts | 51° |
| 2026-05-05 18:15 | 53.35219 | -2.27353 | 257 ft | 11 kts | 51° |
| 2026-05-05 18:15 | 53.35274 | -2.27240 | 253 ft | 11 kts | 50° |
| 2026-05-05 18:16 | 53.35329 | -2.27190 | 249 ft | 10 kts | 11° |
| 2026-05-05 18:16 | 53.35347 | -2.27189 | 247 ft | 0 kts | 357° |
| 2026-05-05 18:16 | 53.35375 | -2.27200 | 246 ft | 9 kts | 340° |
| 2026-05-05 18:17 | 53.35441 | -2.27280 | 245 ft | 13 kts | 319° |
| 2026-05-05 18:17 | 53.35509 | -2.27371 | 245 ft | 10 kts | 321° |
| 2026-05-05 18:17 | 53.35540 | -2.27414 | 244 ft | 6 kts | 320° |
| 2026-05-05 18:17 | 53.35556 | -2.27435 | 244 ft | 4 kts | 320° |
| 2026-05-05 18:18 | 53.35578 | -2.27466 | 245 ft | 3 kts | 320° |
| 2026-05-05 18:18 | 53.35589 | -2.27482 | 245 ft | 3 kts | 320° |
| 2026-05-05 18:18 | 53.35611 | -2.27510 | 245 ft | 4 kts | 322° |
| 2026-05-05 18:18 | 53.35643 | -2.27551 | 246 ft | 7 kts | 322° |
| 2026-05-05 18:19 | 53.35685 | -2.27606 | 247 ft | 8 kts | 325° |
| 2026-05-05 18:19 | 53.35743 | -2.27647 | 247 ft | 9 kts | 339° |
| 2026-05-05 18:19 | 53.35795 | -2.27697 | 248 ft | 8 kts | 317° |
| 2026-05-05 18:19 | 53.35822 | -2.27745 | 249 ft | 3 kts | 311° |
| 2026-05-05 18:20 | 53.35838 | -2.27778 | 249 ft | 4 kts | 310° |
| 2026-05-05 18:20 | 53.35860 | -2.27818 | 249 ft | 5 kts | 313° |
| 2026-05-05 18:20 | 53.35897 | -2.27847 | 250 ft | 7 kts | 351° |
| 2026-05-05 18:20 | 53.35958 | -2.27838 | 249 ft | 10 kts | 6° |
| 2026-05-05 18:21 | 53.36041 | -2.27823 | 249 ft | 13 kts | 6° |
| 2026-05-05 18:21 | 53.36095 | -2.27766 | 248 ft | 9 kts | 80° |
| 2026-05-05 18:21 | 53.36125 | -2.27715 | 247 ft | 8 kts | 12° |
| 2026-05-05 18:21 | 53.36155 | -2.27702 | 247 ft | 3 kts | 14° |
| 2026-05-05 18:22 | 53.36156 | -2.27702 | 247 ft | 0 kts | 14° |